Time;durP1;ratioP1;P1;durP2;ratioP2;P2;SDS_P1;SDS_P2;PMS_P1;PMS_P2;Temp;Humidity;BMP_temperature;BMP_pressure;BME280_temperature;BME280_humidity;BME280_pressure;Samples;Min_cycle;Max_cycle;Signal;HPM_P1;HPM_P2
2024/03/21 00:00:43;;;;;;;;;19.00;18.00;;;;;19.32;100.00;101441.34;2106881;27;46331;-59
2024/03/21 00:01:44;;;;;;;;;20.00;19.50;;;;;19.32;100.00;101437.78;2106724;27;46293;-60
2024/03/21 00:02:46;;;;;;;;;19.50;18.50;;;;;19.31;100.00;101439.59;2105810;27;46637;-58
2024/03/21 00:03:47;;;;;;;;;24.60;23.40;;;;;19.30;100.00;101435.13;2106852;27;46482;-60
2024/03/21 00:04:47;;;;;;;;;20.75;20.50;;;;;19.30;100.00;101437.81;2106632;27;46312;-60
2024/03/21 00:05:48;;;;;;;;;22.50;22.50;;;;;19.29;100.00;101446.84;2106965;27;46695;-58
2024/03/21 00:06:48;;;;;;;;;23.25;22.75;;;;;19.30;100.00;101450.41;2106845;27;46485;-57
2024/03/21 00:07:49;;;;;;;;;21.50;19.75;;;;;19.29;100.00;101448.66;2107033;27;45470;-59
2024/03/21 00:08:49;;;;;;;;;19.75;18.00;;;;;19.27;100.00;101451.41;2107275;27;46559;-60
2024/03/21 00:09:49;;;;;;;;;19.75;19.75;;;;;19.29;100.00;101449.53;2107366;27;46353;-60
2024/03/21 00:10:50;;;;;;;;;23.00;20.75;;;;;19.28;100.00;101449.59;2106366;27;46301;-59
2024/03/21 00:11:50;;;;;;;;;21.25;21.00;;;;;19.26;100.00;101447.00;2106083;27;46872;-60
2024/03/21 00:12:50;;;;;;;;;25.00;22.50;;;;;19.26;100.00;101455.06;2100207;27;46528;-59
2024/03/21 00:13:51;;;;;;;;;20.75;18.50;;;;;19.25;100.00;101449.75;2100337;27;46286;-59
2024/03/21 00:14:51;;;;;;;;;22.00;22.00;;;;;19.25;100.00;101453.31;2100732;27;46477;-59
2024/03/21 00:15:52;;;;;;;;;21.00;20.33;;;;;19.24;100.00;101451.56;2101199;27;45851;-60
2024/03/21 00:16:52;;;;;;;;;21.75;21.75;;;;;19.24;100.00;101454.25;2100343;27;47098;-59
2024/03/21 00:17:52;;;;;;;;;20.50;20.50;;;;;19.24;100.00;101454.25;2099401;27;46670;-59
2024/03/21 00:18:53;;;;;;;;;22.25;20.25;;;;;19.24;100.00;101458.78;2101938;27;46709;-58
2024/03/21 00:19:53;;;;;;;;;22.50;20.50;;;;;19.23;100.00;101455.22;2099732;27;46926;-58
2024/03/21 00:20:53;;;;;;;;;20.00;20.00;;;;;19.22;100.00;101457.97;2100800;27;46644;-57
2024/03/21 00:21:54;;;;;;;;;19.50;18.50;;;;;19.21;100.00;101457.09;2102421;27;45806;-59
2024/03/21 00:22:54;;;;;;;;;23.50;23.00;;;;;19.23;100.00;101454.34;2101303;27;46592;-59
2024/03/21 00:23:54;;;;;;;;;22.25;22.25;;;;;19.24;100.00;101453.41;2102960;27;46388;-59
2024/03/21 00:24:55;;;;;;;;;22.75;19.75;;;;;19.27;100.00;101450.56;2101845;27;46180;-58
2024/03/21 00:26:02;;;;;;;;;17.75;17.50;;;;;19.24;100.00;101456.94;2101087;27;47031;-59
2024/03/21 00:27:02;;;;;;;;;25.00;24.60;;;;;19.24;100.00;101450.69;2100137;27;46489;-59
2024/03/21 00:28:03;;;;;;;;;22.50;22.50;;;;;19.24;100.00;101462.34;2093888;28;45588;-58
2024/03/21 00:29:04;;;;;;;;;28.00;27.50;;;;;19.24;100.00;101458.78;2095144;28;46431;-58
2024/03/21 00:30:06;;;;;;;;;27.00;26.00;;;;;19.24;100.00;101464.16;2102380;27;47074;-58
2024/03/21 00:31:07;;;;;;;;;29.60;28.00;;;;;19.23;100.00;101460.59;2103156;27;46828;-58
2024/03/21 00:32:07;;;;;;;;;32.00;29.25;;;;;19.23;100.00;101457.03;2098659;28;46644;-57
2024/03/21 00:33:07;;;;;;;;;26.75;26.00;;;;;19.22;100.00;101455.28;2099084;28;46669;-57
2024/03/21 00:34:10;;;;;;;;;24.25;24.25;;;;;19.22;100.00;101463.34;2102164;27;46733;-59
2024/03/21 00:35:11;;;;;;;;;24.60;24.60;;;;;19.23;100.00;101465.09;2093193;28;45653;-59
2024/03/21 00:36:11;;;;;;;;;29.00;26.75;;;;;19.21;100.00;101456.22;2094054;28;46702;-57
2024/03/21 00:37:11;;;;;;;;;29.25;28.00;;;;;19.21;100.00;101462.47;2101287;27;46342;-57
2024/03/21 00:38:12;;;;;;;;;28.25;27.00;;;;;19.21;100.00;101464.31;2102747;27;46600;-57
2024/03/21 00:39:18;;;;;;;;;28.00;27.25;;;;;19.19;100.00;101464.38;2102719;27;46010;-60
2024/03/21 00:40:18;;;;;;;;;27.60;26.60;;;;;19.16;100.00;101458.25;2100802;27;46971;-59
2024/03/21 00:41:20;;;;;;;;;30.50;28.50;;;;;19.16;100.00;101466.31;2102439;27;46461;-57
2024/03/21 00:42:21;;;;;;;;;26.40;25.60;;;;;19.15;100.00;101465.44;2102254;27;47022;-57
2024/03/21 00:43:22;;;;;;;;;27.20;25.80;;;;;19.15;100.00;101469.94;2099370;28;46487;-57
2024/03/21 00:44:22;;;;;;;;;19.80;18.60;;;;;19.13;100.00;101461.94;2104195;27;46607;-54
2024/03/21 00:45:23;;;;;;;;;21.25;20.50;;;;;19.13;100.00;101467.34;2102149;27;46482;-57
2024/03/21 00:46:23;;;;;;;;;26.75;25.75;;;;;19.11;100.00;101474.59;2104515;27;46304;-58
2024/03/21 00:47:23;;;;;;;;;25.25;24.00;;;;;19.11;100.00;101467.41;2102053;27;46587;-57
2024/03/21 00:48:24;;;;;;;;;26.75;26.00;;;;;19.09;100.00;101465.72;2101018;27;46180;-58
2024/03/21 00:49:24;;;;;;;;;27.00;26.50;;;;;19.08;100.00;101458.59;2105262;27;46212;-59
2024/03/21 00:50:24;;;;;;;;;28.50;28.00;;;;;19.06;100.00;101466.75;2107338;27;46294;-60
2024/03/21 00:51:25;;;;;;;;;23.50;23.50;;;;;19.05;100.00;101462.28;2109624;27;46343;-60
2024/03/21 00:52:25;;;;;;;;;22.00;20.40;;;;;19.07;100.00;101465.81;2106853;27;46927;-59
2024/03/21 00:53:26;;;;;;;;;28.50;26.75;;;;;19.07;100.00;101462.25;2108391;27;46344;-60
2024/03/21 00:54:26;;;;;;;;;26.00;25.25;;;;;19.07;100.00;101460.44;2108450;27;46152;-56
2024/03/21 00:55:27;;;;;;;;;27.75;27.75;;;;;19.06;100.00;101469.44;2108406;27;46558;-58
2024/03/21 00:56:27;;;;;;;;;26.00;26.00;;;;;18.97;100.00;101469.84;2107661;27;46293;-59
2024/03/21 00:57:27;;;;;;;;;26.25;25.25;;;;;19.01;100.00;101473.25;2109287;27;46599;-59
2024/03/21 00:58:29;;;;;;;;;25.50;24.75;;;;;18.97;100.00;101477.03;2109088;27;46663;-59
2024/03/21 00:59:29;;;;;;;;;25.20;24.40;;;;;18.99;100.00;101484.09;2108824;27;46648;-59
2024/03/21 01:00:30;;;;;;;;;17.25;16.00;;;;;19.06;100.00;101487.41;2109176;27;46630;-59
2024/03/21 01:01:30;;;;;;;;;28.25;27.25;;;;;19.04;100.00;101492.81;2094987;28;46656;-57
2024/03/21 01:02:30;;;;;;;;;26.75;25.25;;;;;19.04;100.00;101478.50;2094989;28;46795;-58
2024/03/21 01:03:31;;;;;;;;;28.75;28.00;;;;;19.03;100.00;101492.88;2108480;27;47854;-59
2024/03/21 01:04:31;;;;;;;;;30.75;25.75;;;;;19.04;100.00;101487.44;2099633;27;46367;-58
2024/03/21 01:05:34;;;;;;;;;31.50;28.50;;;;;19.03;100.00;101487.50;2105020;27;46073;-58
2024/03/21 01:06:35;;;;;;;;;23.40;22.20;;;;;19.04;100.00;101492.81;2107988;27;46834;-57
2024/03/21 01:07:35;;;;;;;;;28.25;27.75;;;;;19.05;100.00;101496.38;2107764;27;46635;-58
2024/03/21 01:08:36;;;;;;;;;30.50;29.50;;;;;19.04;100.00;101500.03;2108718;27;46599;-59
2024/03/21 01:09:36;;;;;;;;;31.75;29.75;;;;;19.02;100.00;101496.53;2108069;27;46220;-58
2024/03/21 01:10:36;;;;;;;;;26.50;26.50;;;;;19.02;100.00;101496.53;2107883;27;46657;-57
2024/03/21 01:11:37;;;;;;;;;27.75;24.75;;;;;19.01;100.00;101494.78;2107807;27;46602;-56
2024/03/21 01:12:38;;;;;;;;;26.25;26.25;;;;;19.01;100.00;101500.16;2107186;27;46288;-56
2024/03/21 01:13:38;;;;;;;;;28.25;27.00;;;;;19.00;100.00;101504.66;2108119;27;46495;-59
2024/03/21 01:14:38;;;;;;;;;30.00;27.00;;;;;18.99;100.00;101511.00;2108186;27;46674;-56
2024/03/21 01:15:39;;;;;;;;;27.75;25.75;;;;;18.99;100.00;101510.13;2108507;27;46622;-59
2024/03/21 01:16:39;;;;;;;;;30.75;28.50;;;;;18.99;100.00;101516.38;2107195;27;46420;-57
2024/03/21 01:17:39;;;;;;;;;28.00;26.00;;;;;18.98;100.00;101516.44;2108350;27;45564;-59
2024/03/21 01:18:40;;;;;;;;;26.50;26.25;;;;;18.98;100.00;101513.75;2108007;27;46895;-60
2024/03/21 01:19:41;;;;;;;;;29.20;28.80;;;;;18.97;100.00;101517.38;2108133;27;47358;-60
2024/03/21 01:20:41;;;;;;;;;28.75;28.50;;;;;18.96;100.00;101521.03;2108210;27;46806;-59
2024/03/21 01:21:41;;;;;;;;;32.25;31.00;;;;;18.94;100.00;101523.78;2107715;27;46885;-55
2024/03/21 01:22:42;;;;;;;;;29.00;28.50;;;;;18.94;100.00;101517.53;2107241;27;46652;-58
2024/03/21 01:23:42;;;;;;;;;29.75;28.75;;;;;18.92;100.00;101516.69;2108068;27;45922;-56
2024/03/21 01:24:48;;;;;;;;;27.75;27.75;;;;;18.92;100.00;101522.94;2106556;27;46702;-59
2024/03/21 01:25:48;;;;;;;;;30.60;27.80;;;;;18.90;100.00;101515.91;2107309;27;46568;-57
2024/03/21 01:26:49;;;;;;;;;30.75;29.00;;;;;18.88;100.00;101525.84;2107763;27;46445;-57
2024/03/21 01:27:49;;;;;;;;;30.00;28.00;;;;;18.87;100.00;101527.66;2107952;27;46741;-57
2024/03/21 01:28:51;;;;;;;;;33.00;30.75;;;;;18.87;100.00;101527.66;2106900;27;46563;-56
2024/03/21 01:29:51;;;;;;;;;28.40;26.20;;;;;18.86;100.00;101527.72;2108261;27;46787;-57
2024/03/21 01:30:52;;;;;;;;;29.25;28.75;;;;;18.84;100.00;101529.63;2109018;27;46373;-59
2024/03/21 01:31:52;;;;;;;;;28.50;27.25;;;;;18.81;100.00;101523.44;2107842;27;46482;-57
2024/03/21 01:32:52;;;;;;;;;29.50;28.00;;;;;18.81;100.00;101528.81;2107871;27;46270;-59
2024/03/21 01:33:53;;;;;;;;;29.50;28.50;;;;;18.81;100.00;101528.81;2107994;27;46369;-57
2024/03/21 01:34:54;;;;;;;;;29.50;28.00;;;;;18.80;100.00;101532.44;2109422;27;47197;-58
2024/03/21 01:35:55;;;;;;;;;29.40;28.40;;;;;18.77;100.00;101526.31;2107237;27;46872;-59
2024/03/21 01:36:57;;;;;;;;;28.00;27.60;;;;;18.76;100.00;101535.31;2107380;27;46727;-57
2024/03/21 01:37:58;;;;;;;;;30.20;28.40;;;;;18.74;100.00;101531.81;2107728;27;46659;-55
2024/03/21 01:38:58;;;;;;;;;32.20;29.00;;;;;18.71;100.00;101522.06;2107059;27;46747;-58
2024/03/21 01:40:06;;;;;;;;;29.00;24.75;;;;;18.69;100.00;101528.47;2106298;27;46263;-57
2024/03/21 01:41:06;;;;;;;;;28.00;28.00;;;;;18.67;100.00;101525.81;2106695;27;46815;-56
2024/03/21 01:42:07;;;;;;;;;22.50;22.50;;;;;18.66;100.00;101532.13;2107903;27;46503;-58
2024/03/21 01:43:22;;;;;;;;;24.00;23.00;;;;;18.66;100.00;101537.50;2108719;27;45361;-56
2024/03/21 01:44:22;;;;;;;;;27.00;24.60;;;;;18.59;100.00;101549.44;2108270;27;46517;-57
2024/03/21 01:45:23;;;;;;;;;26.75;26.75;;;;;18.57;100.00;101545.94;2108203;27;46677;-58
2024/03/21 01:46:23;;;;;;;;;26.25;25.75;;;;;18.71;100.00;101548.97;2107234;27;46185;-58
2024/03/21 01:47:24;;;;;;;;;28.00;25.50;;;;;18.73;100.00;101551.59;2108482;27;45577;-59
2024/03/21 01:48:24;;;;;;;;;27.75;27.75;;;;;18.72;100.00;101545.34;2108058;27;46807;-57
2024/03/21 01:49:25;;;;;;;;;29.50;26.75;;;;;18.76;100.00;101551.44;2107972;27;46580;-56
2024/03/21 01:50:25;;;;;;;;;29.20;23.40;;;;;18.74;100.00;101545.28;2107299;27;46834;-60
2024/03/21 01:51:26;;;;;;;;;27.25;27.00;;;;;18.74;100.00;101548.81;2108214;27;47318;-58
2024/03/21 01:52:28;;;;;;;;;23.75;23.75;;;;;18.74;100.00;101553.34;2098460;28;46218;-57
2024/03/21 01:53:29;;;;;;;;;24.80;24.80;;;;;18.70;100.00;101552.59;2098554;28;45983;-58
2024/03/21 01:54:32;;;;;;;;;26.80;25.80;;;;;18.70;100.00;101557.97;2108630;27;46788;-58
2024/03/21 01:55:32;;;;;;;;;22.80;22.80;;;;;18.66;100.00;101559.03;2108600;27;46760;-58
2024/03/21 01:56:33;;;;;;;;;26.25;25.00;;;;;18.62;100.00;101559.19;2106661;27;46211;-58
2024/03/21 01:57:37;;;;;;;;;21.20;20.80;;;;;18.63;100.00;101559.13;2108359;27;46654;-60
2024/03/21 01:58:37;;;;;;;;;25.40;22.60;;;;;18.61;100.00;101571.75;2106447;27;46813;-59
2024/03/21 01:59:38;;;;;;;;;26.75;26.50;;;;;18.56;100.00;101573.78;2107886;27;46078;-58
2024/03/21 02:00:38;;;;;;;;;25.25;23.50;;;;;18.54;100.00;101570.25;2109067;27;46545;-59
2024/03/21 02:01:39;;;;;;;;;24.00;21.75;;;;;18.52;100.00;101570.31;2110621;27;46358;-60
2024/03/21 02:02:40;;;;;;;;;23.80;21.60;;;;;18.50;100.00;101572.19;2112553;27;46425;-60
2024/03/21 02:03:40;;;;;;;;;26.75;26.75;;;;;18.49;100.00;101567.75;2107523;27;46540;-59
2024/03/21 02:04:41;;;;;;;;;20.50;19.00;;;;;18.48;100.00;101566.00;2107806;27;46499;-59
2024/03/21 02:05:42;;;;;;;;;28.40;26.40;;;;;18.47;100.00;101572.34;2107537;27;46362;-59
2024/03/21 02:06:42;;;;;;;;;28.25;24.25;;;;;18.46;100.00;101567.91;2108085;27;46360;-57
2024/03/21 02:07:42;;;;;;;;;23.75;21.75;;;;;18.47;100.00;101576.84;2108155;27;46974;-60
2024/03/21 02:08:43;;;;;;;;;23.25;22.50;;;;;18.48;100.00;101575.88;2108148;27;46569;-60
2024/03/21 02:09:49;;;;;;;;;25.00;24.25;;;;;18.45;100.00;101570.66;2107618;27;46787;-59
2024/03/21 02:10:50;;;;;;;;;22.80;21.80;;;;;18.43;100.00;101572.53;2107709;27;46582;-58
2024/03/21 02:11:50;;;;;;;;;23.25;22.00;;;;;18.42;100.00;101577.03;2107738;27;46535;-59
2024/03/21 02:12:51;;;;;;;;;25.50;24.00;;;;;18.41;100.00;101569.00;2103343;27;46389;-56
2024/03/21 02:13:54;;;;;;;;;23.00;23.00;;;;;18.38;100.00;101564.63;2102813;27;46826;-58
2024/03/21 02:14:54;;;;;;;;;20.80;20.80;;;;;18.36;100.00;101566.50;2107454;27;46888;-59
2024/03/21 02:15:55;;;;;;;;;22.50;21.50;;;;;18.38;100.00;101567.31;2105809;27;46479;-58
2024/03/21 02:16:55;;;;;;;;;23.00;22.00;;;;;18.35;100.00;101570.13;2107149;27;46387;-57
2024/03/21 02:17:56;;;;;;;;;23.00;22.00;;;;;18.34;100.00;101576.47;2106070;27;46276;-59
2024/03/21 02:18:56;;;;;;;;;24.50;22.50;;;;;18.36;100.00;101576.38;2108239;27;45556;-58
2024/03/21 02:19:56;;;;;;;;;23.00;22.00;;;;;18.34;100.00;101570.22;2108513;27;46831;-59
2024/03/21 02:20:57;;;;;;;;;23.50;22.00;;;;;18.41;100.00;101571.69;2106269;27;46247;-59
2024/03/21 02:23:17;;;;;;;;;23.40;22.20;;;;;18.29;100.00;101564.13;2108378;27;46528;-59
2024/03/21 02:24:17;;;;;;;;;24.00;21.25;;;;;18.28;100.00;101565.06;2107546;27;46492;-60
2024/03/21 02:25:17;;;;;;;;;18.75;18.75;;;;;18.26;100.00;101561.56;2107560;27;45528;-57
2024/03/21 02:26:18;;;;;;;;;22.75;21.75;;;;;18.25;100.00;101568.75;2106781;27;46547;-56
2024/03/21 02:27:20;;;;;;;;;21.50;20.50;;;;;18.28;100.00;101562.38;2108008;27;45246;-59
2024/03/21 02:28:20;;;;;;;;;22.80;21.80;;;;;18.27;100.00;101566.88;2108580;27;46874;-59
2024/03/21 02:29:22;;;;;;;;;25.00;23.00;;;;;18.18;100.00;101559.22;2107879;27;47042;-59
2024/03/21 02:30:23;;;;;;;;;23.40;23.00;;;;;18.19;100.00;101561.81;2107179;27;46466;-59
2024/03/21 02:31:23;;;;;;;;;25.25;22.75;;;;;18.18;100.00;101560.06;2107727;27;46306;-59
2024/03/21 02:32:24;;;;;;;;;24.00;23.25;;;;;18.23;100.00;101562.56;2107692;27;46357;-59
2024/03/21 02:33:24;;;;;;;;;23.00;21.75;;;;;18.22;100.00;101567.06;2107422;27;45509;-57
2024/03/21 02:34:24;;;;;;;;;22.75;20.75;;;;;18.27;100.00;101563.31;2106697;27;46479;-59
2024/03/21 02:35:25;;;;;;;;;22.75;21.75;;;;;18.21;100.00;101561.75;2105039;27;47226;-59
2024/03/21 02:36:25;;;;;;;;;29.00;25.25;;;;;18.28;100.00;101571.31;2108666;27;46518;-60
2024/03/21 02:37:25;;;;;;;;;24.50;23.00;;;;;18.25;100.00;101571.44;2097123;28;45532;-59
2024/03/21 02:38:26;;;;;;;;;21.50;20.25;;;;;18.27;100.00;101572.25;2098131;28;46249;-60
2024/03/21 02:39:26;;;;;;;;;22.00;20.75;;;;;18.29;100.00;101569.50;2107711;27;47115;-60
2024/03/21 02:40:27;;;;;;;;;21.75;21.50;;;;;18.29;100.00;101573.06;2107745;27;46649;-60
2024/03/21 02:41:27;;;;;;;;;20.00;20.00;;;;;18.30;100.00;101568.59;2107925;27;46922;-59
2024/03/21 02:42:28;;;;;;;;;23.50;20.50;;;;;18.28;100.00;101570.44;2107236;27;46081;-60
2024/03/21 02:43:28;;;;;;;;;24.50;20.50;;;;;18.29;100.00;101581.13;2106854;27;46289;-59
2024/03/21 02:44:28;;;;;;;;;22.25;20.25;;;;;18.29;100.00;101572.19;2106918;27;46188;-59
2024/03/21 02:45:30;;;;;;;;;21.75;21.00;;;;;18.25;100.00;101579.50;2107925;27;46797;-60
2024/03/21 02:46:30;;;;;;;;;19.80;19.80;;;;;18.30;100.00;101580.22;2106892;27;46653;-59
2024/03/21 02:47:30;;;;;;;;;23.50;21.75;;;;;18.30;100.00;101577.53;2107560;27;46238;-60
2024/03/21 02:48:31;;;;;;;;;22.25;20.25;;;;;18.32;100.00;101578.34;2107285;27;46097;-57
2024/03/21 02:49:32;;;;;;;;;20.40;20.00;;;;;18.30;100.00;101577.53;2107712;27;45616;-61
2024/03/21 02:50:33;;;;;;;;;24.50;21.25;;;;;18.32;100.00;101577.47;2107365;27;45823;-59
2024/03/21 02:51:33;;;;;;;;;20.25;20.25;;;;;18.29;100.00;101578.44;2106044;27;45975;-59
2024/03/21 02:52:33;;;;;;;;;20.25;19.50;;;;;18.30;100.00;101574.84;2107982;27;46163;-58
2024/03/21 02:53:34;;;;;;;;;22.00;22.00;;;;;18.29;100.00;101578.44;2107493;27;46301;-60
2024/03/21 02:54:35;;;;;;;;;24.25;23.75;;;;;18.28;100.00;101579.38;2106957;27;46817;-59
2024/03/21 02:55:35;;;;;;;;;20.25;18.50;;;;;18.28;100.00;101582.06;2108308;27;46704;-59
2024/03/21 02:56:35;;;;;;;;;25.00;22.75;;;;;18.22;100.00;101583.19;2107105;27;46603;-56
2024/03/21 02:57:36;;;;;;;;;26.00;23.50;;;;;18.28;100.00;101582.06;2107232;27;46465;-60
2024/03/21 02:58:36;;;;;;;;;25.75;22.00;;;;;18.30;100.00;101577.53;2107386;27;46158;-60
2024/03/21 02:59:37;;;;;;;;;19.75;19.00;;;;;18.30;100.00;101588.28;2106624;27;47752;-59
2024/03/21 03:00:37;;;;;;;;;23.40;21.60;;;;;18.29;100.00;101583.81;2107561;27;46876;-60
2024/03/21 03:01:38;;;;;;;;;23.50;21.75;;;;;18.27;100.00;101584.81;2106851;27;45921;-58
2024/03/21 03:02:39;;;;;;;;;19.00;16.25;;;;;18.20;100.00;101576.13;2106924;27;46578;-60
2024/03/21 03:03:39;;;;;;;;;20.00;19.40;;;;;18.22;100.00;101577.81;2108123;27;46656;-58
2024/03/21 03:04:40;;;;;;;;;17.25;17.25;;;;;18.19;100.00;101583.31;2106703;27;46666;-59
2024/03/21 03:05:44;;;;;;;;;21.00;19.00;;;;;18.20;100.00;101581.50;2106734;27;46817;-59
2024/03/21 03:06:45;;;;;;;;;16.40;15.40;;;;;18.19;100.00;101577.06;2108246;27;46423;-60
2024/03/21 03:07:45;;;;;;;;;16.50;16.50;;;;;18.18;100.00;101580.69;2107434;27;46403;-59
2024/03/21 03:08:46;;;;;;;;;21.50;20.50;;;;;18.17;100.00;101574.44;2106556;27;45539;-60
2024/03/21 03:09:46;;;;;;;;;22.75;21.50;;;;;18.17;100.00;101577.13;2106997;27;46477;-57
2024/03/21 03:10:46;;;;;;;;;25.00;23.00;;;;;18.15;100.00;101568.22;2106714;27;46250;-59
2024/03/21 03:11:47;;;;;;;;;19.25;18.25;;;;;18.22;100.00;101568.88;2106704;27;46433;-59
2024/03/21 03:12:49;;;;;;;;;19.67;19.67;;;;;18.13;100.00;101567.44;2106834;27;46451;-58
2024/03/21 03:13:49;;;;;;;;;21.40;19.60;;;;;18.12;100.00;101567.50;2108080;27;46563;-57
2024/03/21 03:14:49;;;;;;;;;22.25;21.00;;;;;18.11;100.00;101568.44;2108145;27;46807;-60
2024/03/21 03:15:50;;;;;;;;;19.25;19.25;;;;;18.09;100.00;101573.88;2107953;27;46292;-59
2024/03/21 03:16:50;;;;;;;;;22.00;22.00;;;;;18.09;100.00;101570.31;2107743;27;45833;-58
2024/03/21 03:17:50;;;;;;;;;17.50;17.50;;;;;18.09;100.00;101575.69;2107911;27;46796;-58
2024/03/21 03:18:51;;;;;;;;;22.00;20.50;;;;;18.11;100.00;101573.81;2106725;27;46157;-59
2024/03/21 03:19:51;;;;;;;;;22.75;20.50;;;;;18.12;100.00;101581.78;2107178;27;46242;-57
2024/03/21 03:20:51;;;;;;;;;21.00;20.75;;;;;18.13;100.00;101579.97;2107543;27;46434;-60
2024/03/21 03:21:52;;;;;;;;;20.50;20.50;;;;;18.11;100.00;101584.53;2106896;27;46376;-60
2024/03/21 03:22:52;;;;;;;;;22.25;21.00;;;;;18.14;100.00;101589.78;2107093;27;46304;-57
2024/03/21 03:23:53;;;;;;;;;19.00;19.00;;;;;18.14;100.00;101589.78;2106695;27;46887;-58
2024/03/21 03:24:53;;;;;;;;;17.50;16.50;;;;;18.12;100.00;101588.97;2105932;27;46629;-57
2024/03/21 03:25:53;;;;;;;;;18.25;18.25;;;;;18.14;100.00;101595.16;2107176;27;46510;-60
2024/03/21 03:26:53;;;;;;;;;18.75;18.25;;;;;18.13;100.00;101588.91;2107331;27;45871;-57
2024/03/21 03:27:54;;;;;;;;;21.50;20.50;;;;;18.14;100.00;101593.34;2107980;27;46469;-58
2024/03/21 03:28:55;;;;;;;;;18.25;17.50;;;;;18.12;100.00;101583.59;2106798;27;46314;-60
2024/03/21 03:29:55;;;;;;;;;21.50;20.75;;;;;18.13;100.00;101590.72;2111155;27;46535;-60
2024/03/21 03:30:56;;;;;;;;;17.25;17.25;;;;;18.12;100.00;101588.97;2111164;27;46110;-59
2024/03/21 03:32:01;;;;;;;;;18.50;17.75;;;;;18.08;100.00;101598.97;2103346;27;45070;-58
2024/03/21 03:35:41;;;;;;;;;18.00;18.00;;;;;18.05;100.00;101601.78;2089439;28;46397;-57
2024/03/21 03:36:41;;;;;;;;;18.50;17.00;;;;;18.04;100.00;101613.47;2088130;28;46443;-58
2024/03/21 03:37:41;;;;;;;;;19.50;19.50;;;;;18.04;100.00;101608.09;2089828;28;46209;-58
2024/03/21 03:38:42;;;;;;;;;18.00;16.00;;;;;18.04;100.00;101610.78;2089475;28;46198;-58
2024/03/21 03:39:42;;;;;;;;;20.25;20.25;;;;;18.05;100.00;101617.91;2081200;28;46124;-60
2024/03/21 03:40:42;;;;;;;;;18.00;18.00;;;;;18.07;100.00;101615.16;2081183;28;46578;-59
2024/03/21 03:41:43;;;;;;;;;19.50;18.50;;;;;18.06;100.00;101616.97;2088870;28;46051;-56
2024/03/21 03:42:43;;;;;;;;;16.00;16.00;;;;;18.07;100.00;101617.84;2085754;28;46570;-57
2024/03/21 03:43:43;;;;;;;;;22.33;20.00;;;;;18.07;100.00;101615.16;2089725;28;47012;-58
2024/03/21 03:44:44;;;;;;;;;20.50;19.00;;;;;18.07;100.00;101615.16;2089287;28;46165;-56
2024/03/21 03:45:44;;;;;;;;;17.75;17.75;;;;;18.07;100.00;101616.03;2090205;28;46284;-58
2024/03/21 03:46:45;;;;;;;;;18.00;18.00;;;;;18.07;100.00;101620.53;2089047;28;46427;-57
2024/03/21 03:47:45;;;;;;;;;20.25;17.75;;;;;18.04;100.00;101623.31;2089275;28;46654;-59
2024/03/21 03:48:45;;;;;;;;;16.75;15.75;;;;;18.03;100.00;101625.13;2089415;28;46530;-59
2024/03/21 03:49:46;;;;;;;;;20.67;19.33;;;;;18.03;100.00;101626.94;2088163;28;46302;-59
2024/03/21 03:50:46;;;;;;;;;19.50;18.25;;;;;18.00;100.00;101624.38;2089791;28;47489;-56
2024/03/21 03:51:46;;;;;;;;;17.33;16.67;;;;;17.97;100.00;101628.06;2089682;28;46549;-59
2024/03/21 03:52:47;;;;;;;;;21.50;18.25;;;;;17.99;100.00;101633.38;2089002;28;46881;-59
2024/03/21 03:53:48;;;;;;;;;18.50;18.50;;;;;17.97;100.00;101633.44;2081613;28;46942;-60
2024/03/21 03:54:48;;;;;;;;;17.20;16.80;;;;;17.97;100.00;101638.81;2081768;28;46348;-58
2024/03/21 03:55:48;;;;;;;;;19.75;17.75;;;;;17.97;100.00;101638.81;2089530;28;46466;-61
2024/03/21 03:56:49;;;;;;;;;18.33;17.33;;;;;17.96;100.00;101631.69;2088746;28;46198;-59
2024/03/21 03:57:49;;;;;;;;;20.33;19.00;;;;;17.97;100.00;101635.25;2088924;28;46258;-57
2024/03/21 03:58:49;;;;;;;;;18.00;17.00;;;;;17.98;100.00;101639.69;2089684;28;46470;-59
2024/03/21 03:59:49;;;;;;;;;19.00;18.00;;;;;17.96;100.00;101637.06;2086651;28;46269;-59
2024/03/21 04:01:00;;;;;;;;;20.67;20.67;;;;;17.98;100.00;101642.34;2089496;28;46390;-58
2024/03/21 04:02:01;;;;;;;;;17.50;15.75;;;;;17.94;100.00;101645.16;2089629;28;46345;-59
2024/03/21 04:03:01;;;;;;;;;20.25;20.25;;;;;17.94;100.00;101646.97;2090488;28;46512;-60
2024/03/21 04:04:02;;;;;;;;;19.67;17.33;;;;;17.93;100.00;101634.50;2090700;28;46279;-60
2024/03/21 04:05:02;;;;;;;;;17.50;17.25;;;;;17.91;100.00;101631.88;2091720;28;46426;-59
2024/03/21 04:06:04;;;;;;;;;20.00;20.00;;;;;17.93;100.00;101639.84;2091106;28;46138;-59
2024/03/21 04:07:04;;;;;;;;;17.50;16.75;;;;;17.90;100.00;101642.63;2082651;28;47080;-58
2024/03/21 04:08:05;;;;;;;;;18.33;16.33;;;;;17.91;100.00;101644.38;2082684;28;46658;-60
2024/03/21 04:09:05;;;;;;;;;17.00;17.00;;;;;17.88;100.00;101642.69;2091518;28;46149;-60
2024/03/21 04:10:06;;;;;;;;;20.50;19.50;;;;;17.89;100.00;101657.00;2090779;28;46677;-60
2024/03/21 04:11:14;;;;;;;;;17.33;16.33;;;;;17.88;100.00;101653.44;2091101;28;46499;-59
2024/03/21 04:12:14;;;;;;;;;22.40;20.80;;;;;17.83;100.00;101655.44;2096158;27;46537;-58
2024/03/21 04:13:14;;;;;;;;;17.33;16.00;;;;;17.83;100.00;101654.56;2073712;28;46826;-58
2024/03/21 04:14:15;;;;;;;;;17.33;17.33;;;;;17.84;100.00;101656.31;2081878;28;46370;-56
2024/03/21 04:15:15;;;;;;;;;19.00;18.50;;;;;17.83;100.00;101654.56;2108094;27;47132;-58
2024/03/21 04:16:17;;;;;;;;;16.25;16.00;;;;;17.83;100.00;101658.13;2108216;27;46546;-58
2024/03/21 04:17:18;;;;;;;;;16.50;16.50;;;;;17.81;100.00;101664.47;2107184;27;46409;-60
2024/03/21 04:18:19;;;;;;;;;18.40;18.00;;;;;17.78;100.00;101664.56;2108602;27;47127;-58
2024/03/21 04:19:19;;;;;;;;;18.25;17.00;;;;;17.80;100.00;101668.09;2107856;27;46833;-60
2024/03/21 04:20:20;;;;;;;;;15.75;15.75;;;;;17.81;100.00;101659.97;2108888;27;45904;-59
2024/03/21 04:21:20;;;;;;;;;15.00;15.00;;;;;17.65;100.00;101662.28;2108850;27;46483;-57
2024/03/21 04:22:20;;;;;;;;;18.00;18.00;;;;;17.64;100.00;101667.72;2107734;27;46577;-57
2024/03/21 04:23:21;;;;;;;;;17.00;17.00;;;;;17.62;100.00;101672.28;2108766;27;45724;-58
2024/03/21 04:24:22;;;;;;;;;17.00;16.67;;;;;17.40;100.00;101673.94;2107445;27;46301;-58
2024/03/21 04:25:23;;;;;;;;;17.75;16.75;;;;;17.73;100.00;101674.59;2106959;27;46793;-59
2024/03/21 04:26:23;;;;;;;;;15.67;15.00;;;;;17.76;100.00;101674.50;2107612;27;46218;-58
2024/03/21 04:27:23;;;;;;;;;16.33;16.33;;;;;17.75;100.00;101681.66;2108070;27;45560;-57
2024/03/21 04:28:24;;;;;;;;;15.00;14.33;;;;;17.78;100.00;101683.34;2109136;27;46210;-60
2024/03/21 04:29:24;;;;;;;;;17.67;17.00;;;;;17.77;100.00;101690.53;2107367;27;46425;-59
2024/03/21 04:30:24;;;;;;;;;18.00;17.33;;;;;17.76;100.00;101686.09;2108188;27;46772;-57
2024/03/21 04:31:25;;;;;;;;;18.67;17.33;;;;;17.77;100.00;101690.53;2108380;27;46058;-59
2024/03/21 04:32:25;;;;;;;;;17.00;15.33;;;;;17.77;100.00;101685.16;2108442;27;46212;-58
2024/03/21 04:33:26;;;;;;;;;14.00;14.00;;;;;17.81;100.00;101694.00;2108629;27;46238;-59
2024/03/21 04:34:26;;;;;;;;;18.67;16.67;;;;;17.75;100.00;101687.03;2107453;27;46088;-59
2024/03/21 04:35:26;;;;;;;;;15.75;14.75;;;;;17.74;100.00;101701.41;2100351;27;46651;-59
2024/03/21 04:36:27;;;;;;;;;18.33;18.33;;;;;17.74;100.00;101701.41;2102721;27;46629;-58
2024/03/21 04:37:29;;;;;;;;;16.25;15.25;;;;;17.74;100.00;101704.09;2107908;27;46310;-58